sensor_id;sensor_type;location;lat;lon;timestamp;pressure;altitude;pressure_sealevel;temperature;humidity
57847;BME280;43675;50.030;21.952;2024-03-07T00:01:05;99178.09;;;2.38;88.73
57847;BME280;43675;50.030;21.952;2024-03-07T00:03:33;99169.90;;;2.37;89.01
57847;BME280;43675;50.030;21.952;2024-03-07T00:05:59;99177.41;;;2.42;88.80
57847;BME280;43675;50.030;21.952;2024-03-07T00:08:26;99174.30;;;2.39;88.84
57847;BME280;43675;50.030;21.952;2024-03-07T00:10:53;99166.71;;;2.37;88.67
57847;BME280;43675;50.030;21.952;2024-03-07T00:13:19;99167.46;;;2.38;88.73
57847;BME280;43675;50.030;21.952;2024-03-07T00:15:46;99166.94;;;2.51;88.81
57847;BME280;43675;50.030;21.952;2024-03-07T00:18:13;99167.29;;;2.58;88.33
57847;BME280;43675;50.030;21.952;2024-03-07T00:20:39;99165.90;;;2.54;88.10
57847;BME280;43675;50.030;21.952;2024-03-07T00:23:06;99165.23;;;2.52;88.37
57847;BME280;43675;50.030;21.952;2024-03-07T00:25:42;99165.89;;;2.51;88.34
57847;BME280;43675;50.030;21.952;2024-03-07T00:28:09;99167.30;;;2.51;88.12
57847;BME280;43675;50.030;21.952;2024-03-07T00:30:45;99167.91;;;2.50;88.25
57847;BME280;43675;50.030;21.952;2024-03-07T00:33:12;99165.11;;;2.50;87.93
57847;BME280;43675;50.030;21.952;2024-03-07T00:35:39;99172.72;;;2.62;88.17
57847;BME280;43675;50.030;21.952;2024-03-07T00:38:05;99162.55;;;2.73;87.59
57847;BME280;43675;50.030;21.952;2024-03-07T00:40:38;99169.25;;;2.82;87.06
57847;BME280;43675;50.030;21.952;2024-03-07T00:43:04;99164.11;;;2.88;87.02
57847;BME280;43675;50.030;21.952;2024-03-07T00:45:31;99165.45;;;2.81;86.89
57847;BME280;43675;50.030;21.952;2024-03-07T00:47:58;99169.16;;;2.71;86.87
57847;BME280;43675;50.030;21.952;2024-03-07T00:50:25;99168.61;;;2.62;87.25
57847;BME280;43675;50.030;21.952;2024-03-07T00:52:52;99169.41;;;2.56;87.06
57847;BME280;43675;50.030;21.952;2024-03-07T00:55:19;99166.79;;;2.51;86.96
57847;BME280;43675;50.030;21.952;2024-03-07T00:57:46;99170.98;;;2.47;87.11
57847;BME280;43675;50.030;21.952;2024-03-07T01:00:14;99167.41;;;2.44;87.41
57847;BME280;43675;50.030;21.952;2024-03-07T01:02:41;99168.40;;;2.43;87.39
57847;BME280;43675;50.030;21.952;2024-03-07T01:05:08;99164.06;;;2.46;87.24
57847;BME280;43675;50.030;21.952;2024-03-07T01:07:36;99171.65;;;2.44;87.06
57847;BME280;43675;50.030;21.952;2024-03-07T01:10:03;99170.73;;;2.43;87.16
57847;BME280;43675;50.030;21.952;2024-03-07T01:12:30;99167.23;;;2.53;87.21
57847;BME280;43675;50.030;21.952;2024-03-07T01:14:57;99164.73;;;2.66;86.88
57847;BME280;43675;50.030;21.952;2024-03-07T01:17:23;99165.42;;;2.76;86.69
57847;BME280;43675;50.030;21.952;2024-03-07T01:19:50;99170.42;;;2.85;86.16
57847;BME280;43675;50.030;21.952;2024-03-07T01:22:16;99171.63;;;2.91;85.91
57847;BME280;43675;50.030;21.952;2024-03-07T01:24:43;99169.08;;;2.95;85.52
57847;BME280;43675;50.030;21.952;2024-03-07T01:27:09;99172.71;;;2.97;85.53
57847;BME280;43675;50.030;21.952;2024-03-07T01:29:36;99168.05;;;2.99;85.43
57847;BME280;43675;50.030;21.952;2024-03-07T01:32:02;99169.08;;;3.02;85.04
57847;BME280;43675;50.030;21.952;2024-03-07T01:34:29;99170.17;;;3.03;85.07
57847;BME280;43675;50.030;21.952;2024-03-07T01:36:56;99171.08;;;3.04;84.71
57847;BME280;43675;50.030;21.952;2024-03-07T01:39:23;99173.92;;;2.96;85.10
57847;BME280;43675;50.030;21.952;2024-03-07T01:41:56;99173.30;;;2.80;85.19
57847;BME280;43675;50.030;21.952;2024-03-07T01:44:23;99173.91;;;2.69;85.53
57847;BME280;43675;50.030;21.952;2024-03-07T01:46:50;99174.73;;;2.61;85.84
57847;BME280;43675;50.030;21.952;2024-03-07T01:49:18;99174.81;;;2.55;86.01
57847;BME280;43675;50.030;21.952;2024-03-07T01:51:47;99177.97;;;2.50;86.09
57847;BME280;43675;50.030;21.952;2024-03-07T01:54:15;99173.56;;;2.46;86.28
57847;BME280;43675;50.030;21.952;2024-03-07T01:56:42;99180.27;;;2.45;86.58
57847;BME280;43675;50.030;21.952;2024-03-07T01:59:09;99175.71;;;2.43;86.32
57847;BME280;43675;50.030;21.952;2024-03-07T02:01:37;99176.77;;;2.43;86.51
57847;BME280;43675;50.030;21.952;2024-03-07T02:04:04;99178.24;;;2.54;86.40
57847;BME280;43675;50.030;21.952;2024-03-07T02:06:32;99178.98;;;2.58;86.15
57847;BME280;43675;50.030;21.952;2024-03-07T02:08:59;99178.89;;;2.53;86.21
57847;BME280;43675;50.030;21.952;2024-03-07T02:11:27;99179.31;;;2.51;86.31
57847;BME280;43675;50.030;21.952;2024-03-07T02:13:53;99174.29;;;2.46;86.46
57847;BME280;43675;50.030;21.952;2024-03-07T02:16:26;99178.61;;;2.42;86.27
57847;BME280;43675;50.030;21.952;2024-03-07T02:18:53;99174.85;;;2.39;86.36
57847;BME280;43675;50.030;21.952;2024-03-07T02:21:20;99174.52;;;2.49;86.44
57847;BME280;43675;50.030;21.952;2024-03-07T02:23:53;99174.60;;;2.61;85.87
57847;BME280;43675;50.030;21.952;2024-03-07T02:26:20;99172.34;;;2.69;85.50
57847;BME280;43675;50.030;21.952;2024-03-07T02:28:46;99170.67;;;2.75;85.56
57847;BME280;43675;50.030;21.952;2024-03-07T02:31:13;99170.67;;;2.77;85.17
57847;BME280;43675;50.030;21.952;2024-03-07T02:33:40;99171.13;;;2.65;85.13
57847;BME280;43675;50.030;21.952;2024-03-07T02:36:06;99169.08;;;2.51;85.25
57847;BME280;43675;50.030;21.952;2024-03-07T02:38:33;99176.33;;;2.38;85.09
57847;BME280;43675;50.030;21.952;2024-03-07T02:41:00;99169.66;;;2.30;85.22
57847;BME280;43675;50.030;21.952;2024-03-07T02:43:27;99173.45;;;2.26;85.48
57847;BME280;43675;50.030;21.952;2024-03-07T02:45:53;99171.11;;;2.23;85.80
57847;BME280;43675;50.030;21.952;2024-03-07T02:48:20;99171.80;;;2.19;85.51
57847;BME280;43675;50.030;21.952;2024-03-07T02:50:47;99174.42;;;2.18;85.79
57847;BME280;43675;50.030;21.952;2024-03-07T02:53:13;99174.19;;;2.26;85.70
57847;BME280;43675;50.030;21.952;2024-03-07T02:55:40;99178.51;;;2.23;85.46
57847;BME280;43675;50.030;21.952;2024-03-07T02:58:10;99177.52;;;2.19;85.43
57847;BME280;43675;50.030;21.952;2024-03-07T03:00:37;99175.65;;;2.15;85.43
57847;BME280;43675;50.030;21.952;2024-03-07T03:03:04;99176.05;;;2.11;85.79
57847;BME280;43675;50.030;21.952;2024-03-07T03:05:30;99178.00;;;2.10;85.87
57847;BME280;43675;50.030;21.952;2024-03-07T03:07:57;99176.16;;;2.16;85.80
57847;BME280;43675;50.030;21.952;2024-03-07T03:10:25;99175.43;;;2.15;85.51
57847;BME280;43675;50.030;21.952;2024-03-07T03:12:56;99180.64;;;2.14;85.62
57847;BME280;43675;50.030;21.952;2024-03-07T03:15:23;99182.63;;;2.17;85.74
57847;BME280;43675;50.030;21.952;2024-03-07T03:17:50;99181.92;;;2.19;85.55
57847;BME280;43675;50.030;21.952;2024-03-07T03:20:24;99190.40;;;2.15;85.59
57847;BME280;43675;50.030;21.952;2024-03-07T03:22:52;99184.20;;;2.14;85.72
57847;BME280;43675;50.030;21.952;2024-03-07T03:25:21;99188.58;;;2.12;85.87
57847;BME280;43675;50.030;21.952;2024-03-07T03:27:48;99189.55;;;2.13;85.88
57847;BME280;43675;50.030;21.952;2024-03-07T03:30:15;99186.39;;;2.18;85.51
57847;BME280;43675;50.030;21.952;2024-03-07T03:32:42;99192.86;;;2.17;85.54
57847;BME280;43675;50.030;21.952;2024-03-07T03:35:09;99192.70;;;2.23;85.49
57847;BME280;43675;50.030;21.952;2024-03-07T03:37:35;99196.95;;;2.19;85.50
57847;BME280;43675;50.030;21.952;2024-03-07T03:40:03;99193.66;;;2.13;85.40
57847;BME280;43675;50.030;21.952;2024-03-07T03:42:29;99194.18;;;2.11;85.52
57847;BME280;43675;50.030;21.952;2024-03-07T03:44:56;99193.20;;;2.21;85.25
57847;BME280;43675;50.030;21.952;2024-03-07T03:47:22;99199.85;;;2.23;85.10
57847;BME280;43675;50.030;21.952;2024-03-07T03:49:51;99195.73;;;2.15;85.23
57847;BME280;43675;50.030;21.952;2024-03-07T03:52:18;99191.93;;;2.09;85.42
57847;BME280;43675;50.030;21.952;2024-03-07T03:54:52;99193.69;;;2.09;85.45
57847;BME280;43675;50.030;21.952;2024-03-07T03:57:18;99188.89;;;2.02;85.15
57847;BME280;43675;50.030;21.952;2024-03-07T03:59:45;99191.57;;;1.98;85.42
57847;BME280;43675;50.030;21.952;2024-03-07T04:02:12;99193.27;;;1.95;85.42
57847;BME280;43675;50.030;21.952;2024-03-07T04:04:39;99192.98;;;1.93;85.43
57847;BME280;43675;50.030;21.952;2024-03-07T04:07:12;99193.18;;;1.90;85.21
57847;BME280;43675;50.030;21.952;2024-03-07T04:09:39;99190.94;;;1.88;85.38
57847;BME280;43675;50.030;21.952;2024-03-07T04:12:06;99193.34;;;1.87;85.33
57847;BME280;43675;50.030;21.952;2024-03-07T04:14:33;99194.64;;;1.86;85.65
57847;BME280;43675;50.030;21.952;2024-03-07T04:17:00;99198.54;;;1.99;85.50
57847;BME280;43675;50.030;21.952;2024-03-07T04:19:26;99200.63;;;2.10;84.71
57847;BME280;43675;50.030;21.952;2024-03-07T04:21:53;99197.55;;;2.16;84.33
57847;BME280;43675;50.030;21.952;2024-03-07T04:24:19;99203.10;;;2.21;84.00
57847;BME280;43675;50.030;21.952;2024-03-07T04:26:46;99203.80;;;2.25;83.76
57847;BME280;43675;50.030;21.952;2024-03-07T04:29:12;99201.15;;;2.28;83.51
57847;BME280;43675;50.030;21.952;2024-03-07T04:31:39;99204.91;;;2.29;83.19
57847;BME280;43675;50.030;21.952;2024-03-07T04:34:05;99205.47;;;2.31;83.16
57847;BME280;43675;50.030;21.952;2024-03-07T04:36:32;99202.58;;;2.31;83.19
57847;BME280;43675;50.030;21.952;2024-03-07T04:38:58;99205.00;;;2.30;82.52
57847;BME280;43675;50.030;21.952;2024-03-07T04:41:25;99204.59;;;2.18;82.85
57847;BME280;43675;50.030;21.952;2024-03-07T04:43:52;99206.02;;;2.05;82.92
57847;BME280;43675;50.030;21.952;2024-03-07T04:46:19;99209.09;;;1.96;83.11
57847;BME280;43675;50.030;21.952;2024-03-07T04:48:46;99213.08;;;1.85;83.07
57847;BME280;43675;50.030;21.952;2024-03-07T04:51:12;99213.61;;;1.76;83.25
57847;BME280;43675;50.030;21.952;2024-03-07T04:53:42;99214.59;;;1.70;83.54
57847;BME280;43675;50.030;21.952;2024-03-07T04:56:11;99214.95;;;1.64;83.68
57847;BME280;43675;50.030;21.952;2024-03-07T04:58:38;99218.66;;;1.63;83.77
57847;BME280;43675;50.030;21.952;2024-03-07T05:01:05;99213.23;;;1.60;83.77
57847;BME280;43675;50.030;21.952;2024-03-07T05:03:35;99217.93;;;1.59;83.86
57847;BME280;43675;50.030;21.952;2024-03-07T05:06:09;99222.39;;;1.58;83.77
57847;BME280;43675;50.030;21.952;2024-03-07T05:08:38;99222.05;;;1.58;84.07
57847;BME280;43675;50.030;21.952;2024-03-07T05:11:05;99226.55;;;1.57;83.93
57847;BME280;43675;50.030;21.952;2024-03-07T05:13:35;99234.79;;;1.56;84.02
57847;BME280;43675;50.030;21.952;2024-03-07T05:16:05;99234.69;;;1.55;84.14
57847;BME280;43675;50.030;21.952;2024-03-07T05:18:32;99231.09;;;1.56;84.07
57847;BME280;43675;50.030;21.952;2024-03-07T05:20:59;99237.59;;;1.69;83.98
57847;BME280;43675;50.030;21.952;2024-03-07T05:23:25;99232.67;;;1.82;83.51
57847;BME280;43675;50.030;21.952;2024-03-07T05:25:52;99241.31;;;1.80;83.31
57847;BME280;43675;50.030;21.952;2024-03-07T05:28:22;99244.54;;;1.72;83.55
57847;BME280;43675;50.030;21.952;2024-03-07T05:30:51;99245.38;;;1.65;83.53
57847;BME280;43675;50.030;21.952;2024-03-07T05:33:22;99244.84;;;1.60;83.61
57847;BME280;43675;50.030;21.952;2024-03-07T05:35:51;99247.27;;;1.56;83.61
57847;BME280;43675;50.030;21.952;2024-03-07T05:38:18;99245.97;;;1.55;83.82
57847;BME280;43675;50.030;21.952;2024-03-07T05:40:56;99245.98;;;1.53;83.79
57847;BME280;43675;50.030;21.952;2024-03-07T05:43:27;99247.42;;;1.49;83.71
57847;BME280;43675;50.030;21.952;2024-03-07T05:45:53;99254.73;;;1.48;83.57
57847;BME280;43675;50.030;21.952;2024-03-07T05:48:20;99255.95;;;1.60;83.84
57847;BME280;43675;50.030;21.952;2024-03-07T05:50:47;99254.98;;;1.73;83.42
57847;BME280;43675;50.030;21.952;2024-03-07T05:53:14;99251.94;;;1.81;83.26
57847;BME280;43675;50.030;21.952;2024-03-07T05:55:47;99258.91;;;1.73;83.03
57847;BME280;43675;50.030;21.952;2024-03-07T05:58:14;99262.31;;;1.63;83.04
57847;BME280;43675;50.030;21.952;2024-03-07T06:00:44;99260.74;;;1.58;83.27
57847;BME280;43675;50.030;21.952;2024-03-07T06:03:21;99265.55;;;1.53;83.28
57847;BME280;43675;50.030;21.952;2024-03-07T06:05:48;99266.09;;;1.53;83.18
57847;BME280;43675;50.030;21.952;2024-03-07T06:08:15;99262.02;;;1.50;83.16
57847;BME280;43675;50.030;21.952;2024-03-07T06:10:46;99265.87;;;1.59;83.19
57847;BME280;43675;50.030;21.952;2024-03-07T06:13:15;99265.45;;;1.63;82.88
57847;BME280;43675;50.030;21.952;2024-03-07T06:15:52;99268.38;;;1.57;82.90
57847;BME280;43675;50.030;21.952;2024-03-07T06:18:36;99270.75;;;1.51;83.23
57847;BME280;43675;50.030;21.952;2024-03-07T06:21:03;99267.34;;;1.47;83.37
57847;BME280;43675;50.030;21.952;2024-03-07T06:23:30;99269.19;;;1.47;83.50
57847;BME280;43675;50.030;21.952;2024-03-07T06:25:57;99269.27;;;1.51;83.36
57847;BME280;43675;50.030;21.952;2024-03-07T06:28:32;99277.04;;;1.50;83.40
57847;BME280;43675;50.030;21.952;2024-03-07T06:31:02;99278.80;;;1.47;83.49
57847;BME280;43675;50.030;21.952;2024-03-07T06:33:32;99279.48;;;1.48;83.64
57847;BME280;43675;50.030;21.952;2024-03-07T06:35:59;99289.25;;;1.47;83.57
57847;BME280;43675;50.030;21.952;2024-03-07T06:38:29;99291.46;;;1.44;83.61
57847;BME280;43675;50.030;21.952;2024-03-07T06:41:03;99292.94;;;1.43;83.51
57847;BME280;43675;50.030;21.952;2024-03-07T06:43:32;99289.45;;;1.45;83.69
57847;BME280;43675;50.030;21.952;2024-03-07T06:45:58;99294.48;;;1.49;83.38
57847;BME280;43675;50.030;21.952;2024-03-07T06:48:25;99300.02;;;1.64;83.20
57847;BME280;43675;50.030;21.952;2024-03-07T06:50:51;99296.89;;;1.76;83.01
57847;BME280;43675;50.030;21.952;2024-03-07T06:53:18;99298.69;;;1.85;82.47
57847;BME280;43675;50.030;21.952;2024-03-07T06:55:44;99301.96;;;1.93;82.54
57847;BME280;43675;50.030;21.952;2024-03-07T06:58:11;99305.99;;;1.99;82.28
57847;BME280;43675;50.030;21.952;2024-03-07T07:00:37;99307.45;;;2.02;81.90
57847;BME280;43675;50.030;21.952;2024-03-07T07:03:04;99309.86;;;2.07;81.67
57847;BME280;43675;50.030;21.952;2024-03-07T07:05:31;99310.60;;;2.10;81.63
57847;BME280;43675;50.030;21.952;2024-03-07T07:08:04;99314.80;;;2.05;81.41
57847;BME280;43675;50.030;21.952;2024-03-07T07:10:31;99318.08;;;1.91;81.30
57847;BME280;43675;50.030;21.952;2024-03-07T07:12:58;99312.95;;;1.78;81.44
57847;BME280;43675;50.030;21.952;2024-03-07T07:15:25;99317.00;;;1.69;81.69
57847;BME280;43675;50.030;21.952;2024-03-07T07:17:52;99319.98;;;1.63;81.63
57847;BME280;43675;50.030;21.952;2024-03-07T07:20:18;99323.79;;;1.60;81.82
57847;BME280;43675;50.030;21.952;2024-03-07T07:22:47;99321.70;;;1.58;81.67
57847;BME280;43675;50.030;21.952;2024-03-07T07:25:14;99327.27;;;1.57;81.76
57847;BME280;43675;50.030;21.952;2024-03-07T07:27:43;99322.23;;;1.67;81.60
57847;BME280;43675;50.030;21.952;2024-03-07T07:30:17;99324.71;;;1.78;81.45
57847;BME280;43675;50.030;21.952;2024-03-07T07:32:45;99325.84;;;1.85;81.00
57847;BME280;43675;50.030;21.952;2024-03-07T07:35:12;99328.63;;;1.92;80.98
57847;BME280;43675;50.030;21.952;2024-03-07T07:37:42;99333.20;;;1.87;80.86
57847;BME280;43675;50.030;21.952;2024-03-07T07:40:17;99333.94;;;1.93;80.83
57847;BME280;43675;50.030;21.952;2024-03-07T07:42:45;99335.29;;;1.98;80.62
57847;BME280;43675;50.030;21.952;2024-03-07T07:45:19;99337.63;;;1.97;80.81
57847;BME280;43675;50.030;21.952;2024-03-07T07:47:50;99338.75;;;2.04;80.91
57847;BME280;43675;50.030;21.952;2024-03-07T07:50:19;99342.70;;;2.07;80.31
57847;BME280;43675;50.030;21.952;2024-03-07T07:52:51;99341.06;;;2.00;80.39
57847;BME280;43675;50.030;21.952;2024-03-07T07:55:23;99341.97;;;2.07;80.32
57847;BME280;43675;50.030;21.952;2024-03-07T07:57:54;99344.32;;;2.06;80.14
57847;BME280;43675;50.030;21.952;2024-03-07T08:00:22;99348.34;;;2.01;80.53
57847;BME280;43675;50.030;21.952;2024-03-07T08:02:54;99349.86;;;1.96;80.15
57847;BME280;43675;50.030;21.952;2024-03-07T08:05:23;99352.63;;;1.91;80.24
57847;BME280;43675;50.030;21.952;2024-03-07T08:07:55;99352.55;;;1.90;79.97
57847;BME280;43675;50.030;21.952;2024-03-07T08:10:24;99356.98;;;1.88;80.27
57847;BME280;43675;50.030;21.952;2024-03-07T08:12:52;99357.63;;;1.87;79.94
57847;BME280;43675;50.030;21.952;2024-03-07T08:15:19;99357.36;;;1.89;79.71
57847;BME280;43675;50.030;21.952;2024-03-07T08:17:47;99359.66;;;1.86;79.73
57847;BME280;43675;50.030;21.952;2024-03-07T08:20:15;99368.63;;;1.81;79.65
57847;BME280;43675;50.030;21.952;2024-03-07T08:22:42;99365.83;;;1.84;79.45
57847;BME280;43675;50.030;21.952;2024-03-07T08:25:14;99362.05;;;1.95;79.39
57847;BME280;43675;50.030;21.952;2024-03-07T08:27:43;99360.52;;;2.08;79.14
57847;BME280;43675;50.030;21.952;2024-03-07T08:30:11;99356.81;;;2.20;78.95
57847;BME280;43675;50.030;21.952;2024-03-07T08:32:37;99359.29;;;2.25;78.38
57847;BME280;43675;50.030;21.952;2024-03-07T08:35:04;99363.68;;;2.22;78.28
57847;BME280;43675;50.030;21.952;2024-03-07T08:37:32;99359.16;;;2.10;78.45
57847;BME280;43675;50.030;21.952;2024-03-07T08:39:59;99353.14;;;1.99;78.50
57847;BME280;43675;50.030;21.952;2024-03-07T08:42:26;99358.04;;;2.05;78.74
57847;BME280;43675;50.030;21.952;2024-03-07T08:45:00;99362.77;;;2.05;78.81
57847;BME280;43675;50.030;21.952;2024-03-07T08:47:27;99362.30;;;2.10;78.82
57847;BME280;43675;50.030;21.952;2024-03-07T08:49:54;99367.10;;;2.17;78.81
57847;BME280;43675;50.030;21.952;2024-03-07T08:52:21;99362.80;;;2.24;78.48
57847;BME280;43675;50.030;21.952;2024-03-07T08:54:48;99364.98;;;2.27;78.04
57847;BME280;43675;50.030;21.952;2024-03-07T08:57:14;99366.08;;;2.28;77.84
57847;BME280;43675;50.030;21.952;2024-03-07T08:59:44;99371.35;;;2.28;77.37
57847;BME280;43675;50.030;21.952;2024-03-07T09:02:15;99369.60;;;2.28;77.42
57847;BME280;43675;50.030;21.952;2024-03-07T09:04:42;99369.73;;;2.32;77.29
57847;BME280;43675;50.030;21.952;2024-03-07T09:07:11;99370.27;;;2.38;76.91
57847;BME280;43675;50.030;21.952;2024-03-07T09:09:38;99371.12;;;2.38;76.79
57847;BME280;43675;50.030;21.952;2024-03-07T09:12:05;99373.86;;;2.50;76.61
57847;BME280;43675;50.030;21.952;2024-03-07T09:14:32;99373.91;;;2.51;76.45
57847;BME280;43675;50.030;21.952;2024-03-07T09:16:58;99373.66;;;2.56;76.28
57847;BME280;43675;50.030;21.952;2024-03-07T09:19:25;99372.06;;;2.56;76.27
57847;BME280;43675;50.030;21.952;2024-03-07T09:21:53;99372.76;;;2.60;75.90
57847;BME280;43675;50.030;21.952;2024-03-07T09:24:20;99369.25;;;2.63;76.13
57847;BME280;43675;50.030;21.952;2024-03-07T09:26:49;99373.47;;;2.67;75.44
57847;BME280;43675;50.030;21.952;2024-03-07T09:29:23;99376.52;;;2.90;75.44
57847;BME280;43675;50.030;21.952;2024-03-07T09:31:50;99381.81;;;3.03;75.13
57847;BME280;43675;50.030;21.952;2024-03-07T09:34:17;99385.42;;;3.16;74.49
57847;BME280;43675;50.030;21.952;2024-03-07T09:36:44;99382.52;;;3.20;73.89
57847;BME280;43675;50.030;21.952;2024-03-07T09:39:11;99383.23;;;3.18;74.07
57847;BME280;43675;50.030;21.952;2024-03-07T09:41:38;99382.19;;;3.27;74.36
57847;BME280;43675;50.030;21.952;2024-03-07T09:44:05;99384.63;;;3.40;73.56
57847;BME280;43675;50.030;21.952;2024-03-07T09:46:34;99377.53;;;3.70;73.33
57847;BME280;43675;50.030;21.952;2024-03-07T09:49:02;99379.83;;;4.03;72.43
57847;BME280;43675;50.030;21.952;2024-03-07T09:51:29;99375.17;;;4.34;71.75
57847;BME280;43675;50.030;21.952;2024-03-07T09:53:56;99367.20;;;4.65;71.13
57847;BME280;43675;50.030;21.952;2024-03-07T09:56:25;99366.94;;;4.89;69.97
57847;BME280;43675;50.030;21.952;2024-03-07T09:58:57;99373.52;;;5.00;69.03
57847;BME280;43675;50.030;21.952;2024-03-07T10:01:25;99370.54;;;5.07;68.11
57847;BME280;43675;50.030;21.952;2024-03-07T10:03:58;99370.59;;;5.03;67.96
57847;BME280;43675;50.030;21.952;2024-03-07T10:06:25;99374.95;;;5.07;67.78
57847;BME280;43675;50.030;21.952;2024-03-07T10:08:52;99370.95;;;5.28;67.84
57847;BME280;43675;50.030;21.952;2024-03-07T10:11:18;99371.70;;;5.39;66.93
57847;BME280;43675;50.030;21.952;2024-03-07T10:13:45;99376.77;;;5.46;66.73
57847;BME280;43675;50.030;21.952;2024-03-07T10:16:18;99374.48;;;5.56;66.40
57847;BME280;43675;50.030;21.952;2024-03-07T10:18:45;99371.79;;;5.62;65.61
57847;BME280;43675;50.030;21.952;2024-03-07T10:21:18;99371.19;;;5.68;65.88
57847;BME280;43675;50.030;21.952;2024-03-07T10:23:46;99367.36;;;5.74;65.54
57847;BME280;43675;50.030;21.952;2024-03-07T10:26:13;99367.36;;;5.80;65.10
57847;BME280;43675;50.030;21.952;2024-03-07T10:28:39;99371.54;;;5.99;64.74
57847;BME280;43675;50.030;21.952;2024-03-07T10:31:06;99372.30;;;6.16;64.23
57847;BME280;43675;50.030;21.952;2024-03-07T10:33:33;99367.92;;;6.10;63.84
57847;BME280;43675;50.030;21.952;2024-03-07T10:36:00;99371.43;;;6.00;63.80
57847;BME280;43675;50.030;21.952;2024-03-07T10:38:27;99375.34;;;5.95;63.46
57847;BME280;43675;50.030;21.952;2024-03-07T10:40:55;99371.23;;;5.93;63.47
57847;BME280;43675;50.030;21.952;2024-03-07T10:43:22;99374.02;;;6.02;63.49
57847;BME280;43675;50.030;21.952;2024-03-07T10:45:49;99371.50;;;6.23;63.50
57847;BME280;43675;50.030;21.952;2024-03-07T10:48:20;99371.00;;;6.45;62.55
57847;BME280;43675;50.030;21.952;2024-03-07T10:51:02;99368.73;;;6.52;61.92
57847;BME280;43675;50.030;21.952;2024-03-07T10:53:42;99375.95;;;6.39;62.28
57847;BME280;43675;50.030;21.952;2024-03-07T10:56:33;99377.63;;;6.37;62.68
57847;BME280;43675;50.030;21.952;2024-03-07T10:59:17;99378.58;;;6.42;62.97
57847;BME280;43675;50.030;21.952;2024-03-07T11:01:57;99376.80;;;6.59;62.80
57847;BME280;43675;50.030;21.952;2024-03-07T11:04:26;99378.64;;;6.73;62.34
57847;BME280;43675;50.030;21.952;2024-03-07T11:06:52;99373.00;;;6.88;61.84
57847;BME280;43675;50.030;21.952;2024-03-07T11:09:19;99376.91;;;6.99;60.95
57847;BME280;43675;50.030;21.952;2024-03-07T11:11:47;99373.75;;;7.05;60.09
57847;BME280;43675;50.030;21.952;2024-03-07T11:14:20;99377.17;;;6.91;59.62
57847;BME280;43675;50.030;21.952;2024-03-07T11:16:47;99380.05;;;6.78;59.82
57847;BME280;43675;50.030;21.952;2024-03-07T11:21:45;99372.27;;;6.87;60.02
57847;BME280;43675;50.030;21.952;2024-03-07T11:24:23;99375.79;;;6.86;59.57
57847;BME280;43675;50.030;21.952;2024-03-07T11:26:51;99376.66;;;6.83;59.68
57847;BME280;43675;50.030;21.952;2024-03-07T11:29:40;99374.31;;;6.80;59.11
57847;BME280;43675;50.030;21.952;2024-03-07T11:32:07;99374.23;;;6.84;59.04
57847;BME280;43675;50.030;21.952;2024-03-07T11:34:37;99366.19;;;6.84;58.83
57847;BME280;43675;50.030;21.952;2024-03-07T11:37:04;99369.50;;;6.88;58.58
57847;BME280;43675;50.030;21.952;2024-03-07T11:39:47;99372.20;;;6.91;58.16
57847;BME280;43675;50.030;21.952;2024-03-07T11:42:27;99374.27;;;6.93;58.21
57847;BME280;43675;50.030;21.952;2024-03-07T11:44:55;99369.84;;;7.00;58.13
57847;BME280;43675;50.030;21.952;2024-03-07T11:47:26;99366.47;;;7.06;57.85
57847;BME280;43675;50.030;21.952;2024-03-07T11:49:52;99366.80;;;7.08;57.75
57847;BME280;43675;50.030;21.952;2024-03-07T11:52:19;99367.01;;;7.00;57.88
57847;BME280;43675;50.030;21.952;2024-03-07T11:54:46;99365.85;;;6.92;58.14
57847;BME280;43675;50.030;21.952;2024-03-07T11:57:14;99361.89;;;6.84;58.17
57847;BME280;43675;50.030;21.952;2024-03-07T11:59:42;99363.36;;;6.82;58.52
57847;BME280;43675;50.030;21.952;2024-03-07T12:02:09;99356.35;;;6.77;58.67
57847;BME280;43675;50.030;21.952;2024-03-07T12:04:35;99358.38;;;6.65;58.61
57847;BME280;43675;50.030;21.952;2024-03-07T12:07:03;99361.64;;;6.53;59.01
57847;BME280;43675;50.030;21.952;2024-03-07T12:09:39;99363.44;;;6.53;58.70
57847;BME280;43675;50.030;21.952;2024-03-07T12:12:06;99362.06;;;6.59;59.16
57847;BME280;43675;50.030;21.952;2024-03-07T12:14:33;99367.84;;;6.52;58.71
57847;BME280;43675;50.030;21.952;2024-03-07T12:17:01;99364.88;;;6.42;58.89
57847;BME280;43675;50.030;21.952;2024-03-07T12:19:35;99364.92;;;6.25;58.93
57847;BME280;43675;50.030;21.952;2024-03-07T12:22:02;99360.90;;;6.21;59.81
57847;BME280;43675;50.030;21.952;2024-03-07T12:24:29;99360.87;;;6.34;59.42
57847;BME280;43675;50.030;21.952;2024-03-07T12:27:10;99363.33;;;6.48;58.91
57847;BME280;43675;50.030;21.952;2024-03-07T12:29:40;99361.11;;;6.69;59.12
57847;BME280;43675;50.030;21.952;2024-03-07T12:32:06;99359.77;;;6.91;58.49
57847;BME280;43675;50.030;21.952;2024-03-07T12:34:37;99354.20;;;7.00;57.79
57847;BME280;43675;50.030;21.952;2024-03-07T12:37:04;99359.58;;;6.92;57.45
57847;BME280;43675;50.030;21.952;2024-03-07T12:39:32;99360.04;;;6.90;57.54
57847;BME280;43675;50.030;21.952;2024-03-07T12:42:00;99356.22;;;6.90;57.08
57847;BME280;43675;50.030;21.952;2024-03-07T12:44:28;99358.51;;;6.94;56.96
57847;BME280;43675;50.030;21.952;2024-03-07T12:47:05;99356.96;;;6.98;56.80
57847;BME280;43675;50.030;21.952;2024-03-07T12:49:31;99353.80;;;7.05;56.87
57847;BME280;43675;50.030;21.952;2024-03-07T12:51:58;99359.27;;;7.11;57.36
57847;BME280;43675;50.030;21.952;2024-03-07T12:54:24;99357.42;;;7.07;57.18
57847;BME280;43675;50.030;21.952;2024-03-07T12:56:51;99361.48;;;6.97;56.80
57847;BME280;43675;50.030;21.952;2024-03-07T12:59:18;99357.37;;;6.88;56.64
57847;BME280;43675;50.030;21.952;2024-03-07T13:01:45;99361.61;;;6.79;57.41
57847;BME280;43675;50.030;21.952;2024-03-07T13:04:11;99355.78;;;6.77;57.08
57847;BME280;43675;50.030;21.952;2024-03-07T13:06:38;99355.41;;;6.79;57.11
57847;BME280;43675;50.030;21.952;2024-03-07T13:09:05;99363.27;;;6.80;57.41